Terminal Aerodrome Forecast
Issued by NWS

Home | Current Version | Previous Version | Text Only | Print | Product List | Glossary On
Versions: 1 2 3 4 5 6 7 8 9 10 11 12 13 14
926
FTUS42 KTAE 261726
TAFABY
TAF
KABY 261726Z 2618/2718 17009KT P6SM SCT050
     FM271500 21017G25KT P6SM BKN025 BKN050=

USA.gov is the U.S. government's official web portal to all federal, state and local government web resources and services.